sensor_id;sensor_type;location;lat;lon;timestamp;temperature;humidity
27224;DHT22;14965;50.660;13.226;2023-02-10T00:01:12;-5.30;99.90
27224;DHT22;14965;50.660;13.226;2023-02-10T00:03:40;-5.30;99.90
27224;DHT22;14965;50.660;13.226;2023-02-10T00:06:08;-5.30;99.90
27224;DHT22;14965;50.660;13.226;2023-02-10T00:08:37;-5.30;99.90
27224;DHT22;14965;50.660;13.226;2023-02-10T00:11:08;-5.30;99.90
27224;DHT22;14965;50.660;13.226;2023-02-10T00:13:37;-5.30;99.90
27224;DHT22;14965;50.660;13.226;2023-02-10T00:16:06;-5.40;99.90
27224;DHT22;14965;50.660;13.226;2023-02-10T00:18:33;-5.40;99.90
27224;DHT22;14965;50.660;13.226;2023-02-10T00:21:06;-5.40;99.90
27224;DHT22;14965;50.660;13.226;2023-02-10T00:23:33;-5.40;99.90
27224;DHT22;14965;50.660;13.226;2023-02-10T00:26:05;-5.50;99.90
27224;DHT22;14965;50.660;13.226;2023-02-10T00:28:34;-5.50;99.90
27224;DHT22;14965;50.660;13.226;2023-02-10T00:31:05;-5.50;99.90
27224;DHT22;14965;50.660;13.226;2023-02-10T00:33:36;-5.50;99.90
27224;DHT22;14965;50.660;13.226;2023-02-10T00:36:03;-5.50;99.90
27224;DHT22;14965;50.660;13.226;2023-02-10T00:38:33;-5.50;99.90
27224;DHT22;14965;50.660;13.226;2023-02-10T00:41:04;-5.40;99.90
27224;DHT22;14965;50.660;13.226;2023-02-10T00:43:32;-5.40;99.90
27224;DHT22;14965;50.660;13.226;2023-02-10T00:46:02;-5.40;99.90
27224;DHT22;14965;50.660;13.226;2023-02-10T00:48:31;-5.20;99.90
27224;DHT22;14965;50.660;13.226;2023-02-10T00:51:00;-5.30;99.90
27224;DHT22;14965;50.660;13.226;2023-02-10T00:53:29;-5.40;99.90
27224;DHT22;14965;50.660;13.226;2023-02-10T00:55:58;-5.50;99.90
27224;DHT22;14965;50.660;13.226;2023-02-10T00:58:29;-5.70;99.90
27224;DHT22;14965;50.660;13.226;2023-02-10T01:00:57;-5.70;99.90
27224;DHT22;14965;50.660;13.226;2023-02-10T01:03:26;-5.70;99.90
27224;DHT22;14965;50.660;13.226;2023-02-10T01:05:52;-5.70;99.90
27224;DHT22;14965;50.660;13.226;2023-02-10T01:08:21;-5.70;99.90
27224;DHT22;14965;50.660;13.226;2023-02-10T01:10:49;-5.60;99.90
27224;DHT22;14965;50.660;13.226;2023-02-10T01:13:30;-5.70;99.90
27224;DHT22;14965;50.660;13.226;2023-02-10T01:15:57;-5.70;99.90
27224;DHT22;14965;50.660;13.226;2023-02-10T01:18:26;-5.70;99.90
27224;DHT22;14965;50.660;13.226;2023-02-10T01:20:56;-5.70;99.90
27224;DHT22;14965;50.660;13.226;2023-02-10T01:23:22;-5.70;99.90
27224;DHT22;14965;50.660;13.226;2023-02-10T01:25:50;-5.70;99.90
27224;DHT22;14965;50.660;13.226;2023-02-10T01:28:19;-5.60;99.90
27224;DHT22;14965;50.660;13.226;2023-02-10T01:30:46;-5.70;99.90
27224;DHT22;14965;50.660;13.226;2023-02-10T01:33:13;-5.80;99.90
27224;DHT22;14965;50.660;13.226;2023-02-10T01:35:42;-5.70;99.90
27224;DHT22;14965;50.660;13.226;2023-02-10T01:38:10;-5.70;99.90
27224;DHT22;14965;50.660;13.226;2023-02-10T01:40:39;-5.70;99.90
27224;DHT22;14965;50.660;13.226;2023-02-10T01:43:12;-5.80;99.90
27224;DHT22;14965;50.660;13.226;2023-02-10T01:45:39;-5.80;99.90
27224;DHT22;14965;50.660;13.226;2023-02-10T01:48:10;-5.70;99.90
27224;DHT22;14965;50.660;13.226;2023-02-10T01:50:39;-5.80;99.90
27224;DHT22;14965;50.660;13.226;2023-02-10T01:53:08;-5.80;99.90
27224;DHT22;14965;50.660;13.226;2023-02-10T01:55:38;-5.70;99.90
27224;DHT22;14965;50.660;13.226;2023-02-10T01:58:10;-5.80;99.90
27224;DHT22;14965;50.660;13.226;2023-02-10T02:00:38;-5.80;99.90
27224;DHT22;14965;50.660;13.226;2023-02-10T02:03:08;-5.70;99.90
27224;DHT22;14965;50.660;13.226;2023-02-10T02:05:36;-5.80;99.90
27224;DHT22;14965;50.660;13.226;2023-02-10T02:08:06;-5.80;99.90
27224;DHT22;14965;50.660;13.226;2023-02-10T02:10:43;-5.80;99.90
27224;DHT22;14965;50.660;13.226;2023-02-10T02:13:35;-5.80;99.90
27224;DHT22;14965;50.660;13.226;2023-02-10T02:16:22;-5.80;99.90
27224;DHT22;14965;50.660;13.226;2023-02-10T02:19:02;-5.70;99.90
27224;DHT22;14965;50.660;13.226;2023-02-10T02:22:12;-5.60;99.90
27224;DHT22;14965;50.660;13.226;2023-02-10T02:25:13;-5.50;99.90
27224;DHT22;14965;50.660;13.226;2023-02-10T02:28:00;-5.60;99.90
27224;DHT22;14965;50.660;13.226;2023-02-10T02:30:53;-5.50;99.90
27224;DHT22;14965;50.660;13.226;2023-02-10T02:33:38;-5.50;99.90
27224;DHT22;14965;50.660;13.226;2023-02-10T02:36:09;-5.60;99.90
27224;DHT22;14965;50.660;13.226;2023-02-10T02:38:39;-5.60;99.90
27224;DHT22;14965;50.660;13.226;2023-02-10T02:41:06;-5.70;99.90
27224;DHT22;14965;50.660;13.226;2023-02-10T02:43:32;-5.60;99.90
27224;DHT22;14965;50.660;13.226;2023-02-10T02:46:02;-5.60;99.90
27224;DHT22;14965;50.660;13.226;2023-02-10T02:48:44;-5.60;99.90
27224;DHT22;14965;50.660;13.226;2023-02-10T02:51:31;-5.70;99.90
27224;DHT22;14965;50.660;13.226;2023-02-10T02:54:13;-5.70;99.90
27224;DHT22;14965;50.660;13.226;2023-02-10T02:56:49;-5.70;99.90
27224;DHT22;14965;50.660;13.226;2023-02-10T02:59:25;-5.70;99.90
27224;DHT22;14965;50.660;13.226;2023-02-10T03:02:00;-5.70;99.90
27224;DHT22;14965;50.660;13.226;2023-02-10T03:04:32;-5.70;99.90
27224;DHT22;14965;50.660;13.226;2023-02-10T03:07:00;-5.70;99.90
27224;DHT22;14965;50.660;13.226;2023-02-10T03:09:26;-5.70;99.90
27224;DHT22;14965;50.660;13.226;2023-02-10T03:11:53;-5.70;99.90
27224;DHT22;14965;50.660;13.226;2023-02-10T03:14:20;-5.70;99.90
27224;DHT22;14965;50.660;13.226;2023-02-10T03:16:46;-5.70;99.90
27224;DHT22;14965;50.660;13.226;2023-02-10T03:19:12;-5.80;99.90
27224;DHT22;14965;50.660;13.226;2023-02-10T03:21:40;-5.80;99.90
27224;DHT22;14965;50.660;13.226;2023-02-10T03:24:06;-5.70;99.90
27224;DHT22;14965;50.660;13.226;2023-02-10T03:26:32;-5.70;99.90
27224;DHT22;14965;50.660;13.226;2023-02-10T03:28:58;-5.70;99.90
27224;DHT22;14965;50.660;13.226;2023-02-10T03:31:24;-5.70;99.90
27224;DHT22;14965;50.660;13.226;2023-02-10T03:33:50;-5.70;99.90
27224;DHT22;14965;50.660;13.226;2023-02-10T03:36:16;-5.70;99.90
27224;DHT22;14965;50.660;13.226;2023-02-10T03:38:43;-5.70;99.90
27224;DHT22;14965;50.660;13.226;2023-02-10T03:41:09;-5.70;99.90
27224;DHT22;14965;50.660;13.226;2023-02-10T03:43:35;-5.70;99.90
27224;DHT22;14965;50.660;13.226;2023-02-10T03:46:01;-5.70;99.90
27224;DHT22;14965;50.660;13.226;2023-02-10T03:48:27;-5.80;99.90
27224;DHT22;14965;50.660;13.226;2023-02-10T03:50:53;-5.80;99.90
27224;DHT22;14965;50.660;13.226;2023-02-10T03:53:19;-5.90;99.90
27224;DHT22;14965;50.660;13.226;2023-02-10T03:55:46;-5.90;99.90
27224;DHT22;14965;50.660;13.226;2023-02-10T03:58:12;-5.90;99.90
27224;DHT22;14965;50.660;13.226;2023-02-10T04:00:38;-5.80;99.90
27224;DHT22;14965;50.660;13.226;2023-02-10T04:03:04;-5.90;99.90
27224;DHT22;14965;50.660;13.226;2023-02-10T04:05:30;-5.70;99.90
27224;DHT22;14965;50.660;13.226;2023-02-10T04:07:56;-5.80;99.90
27224;DHT22;14965;50.660;13.226;2023-02-10T04:10:22;-5.80;99.90
27224;DHT22;14965;50.660;13.226;2023-02-10T04:12:49;-5.80;99.90
27224;DHT22;14965;50.660;13.226;2023-02-10T04:15:15;-5.80;99.90
27224;DHT22;14965;50.660;13.226;2023-02-10T04:17:41;-5.70;99.90
27224;DHT22;14965;50.660;13.226;2023-02-10T04:20:08;-5.70;99.90
27224;DHT22;14965;50.660;13.226;2023-02-10T04:22:34;-5.60;99.90
27224;DHT22;14965;50.660;13.226;2023-02-10T04:25:00;-5.50;99.90
27224;DHT22;14965;50.660;13.226;2023-02-10T04:27:26;-5.40;99.90
27224;DHT22;14965;50.660;13.226;2023-02-10T04:29:53;-5.30;99.90
27224;DHT22;14965;50.660;13.226;2023-02-10T04:32:19;-5.20;99.90
27224;DHT22;14965;50.660;13.226;2023-02-10T04:34:45;-5.10;99.90
27224;DHT22;14965;50.660;13.226;2023-02-10T04:37:10;-4.90;99.90
27224;DHT22;14965;50.660;13.226;2023-02-10T04:39:36;-4.90;99.90
27224;DHT22;14965;50.660;13.226;2023-02-10T04:42:02;-4.80;99.90
27224;DHT22;14965;50.660;13.226;2023-02-10T04:44:28;-4.80;99.90
27224;DHT22;14965;50.660;13.226;2023-02-10T04:46:56;-4.70;99.90
27224;DHT22;14965;50.660;13.226;2023-02-10T04:49:23;-4.60;99.90
27224;DHT22;14965;50.660;13.226;2023-02-10T04:51:49;-4.50;99.90
27224;DHT22;14965;50.660;13.226;2023-02-10T04:54:15;-4.50;99.90
27224;DHT22;14965;50.660;13.226;2023-02-10T04:56:41;-4.50;99.90
27224;DHT22;14965;50.660;13.226;2023-02-10T04:59:07;-4.30;99.90
27224;DHT22;14965;50.660;13.226;2023-02-10T05:01:33;-4.30;99.90
27224;DHT22;14965;50.660;13.226;2023-02-10T05:04:01;-4.20;99.90
27224;DHT22;14965;50.660;13.226;2023-02-10T05:06:27;-4.10;99.90
27224;DHT22;14965;50.660;13.226;2023-02-10T05:08:53;-4.00;99.90
27224;DHT22;14965;50.660;13.226;2023-02-10T05:11:19;-3.90;99.90
27224;DHT22;14965;50.660;13.226;2023-02-10T05:13:49;-3.90;99.90
27224;DHT22;14965;50.660;13.226;2023-02-10T05:16:15;-3.80;99.90
27224;DHT22;14965;50.660;13.226;2023-02-10T05:18:42;-3.60;99.90
27224;DHT22;14965;50.660;13.226;2023-02-10T05:21:13;-3.70;99.90
27224;DHT22;14965;50.660;13.226;2023-02-10T05:23:42;-3.60;99.90
27224;DHT22;14965;50.660;13.226;2023-02-10T05:26:08;-3.50;99.90
27224;DHT22;14965;50.660;13.226;2023-02-10T05:28:34;-3.50;99.90
27224;DHT22;14965;50.660;13.226;2023-02-10T05:31:03;-3.50;99.90
27224;DHT22;14965;50.660;13.226;2023-02-10T05:33:29;-3.50;99.90
27224;DHT22;14965;50.660;13.226;2023-02-10T05:35:58;-3.40;99.90
27224;DHT22;14965;50.660;13.226;2023-02-10T05:38:25;-3.30;99.90
27224;DHT22;14965;50.660;13.226;2023-02-10T05:40:51;-3.20;99.90
27224;DHT22;14965;50.660;13.226;2023-02-10T05:43:18;-3.20;99.90
27224;DHT22;14965;50.660;13.226;2023-02-10T05:45:46;-3.10;99.90
27224;DHT22;14965;50.660;13.226;2023-02-10T05:48:18;-3.00;99.90
27224;DHT22;14965;50.660;13.226;2023-02-10T05:50:50;-3.00;99.90
27224;DHT22;14965;50.660;13.226;2023-02-10T05:53:19;-3.00;99.90
27224;DHT22;14965;50.660;13.226;2023-02-10T05:55:49;-2.80;99.90
27224;DHT22;14965;50.660;13.226;2023-02-10T05:58:15;-2.90;99.90
27224;DHT22;14965;50.660;13.226;2023-02-10T06:00:44;-2.90;99.90
27224;DHT22;14965;50.660;13.226;2023-02-10T06:03:10;-2.70;99.90
27224;DHT22;14965;50.660;13.226;2023-02-10T06:05:42;-2.80;99.90
27224;DHT22;14965;50.660;13.226;2023-02-10T06:08:08;-2.70;99.90
27224;DHT22;14965;50.660;13.226;2023-02-10T06:13:46;-2.60;99.90
27224;DHT22;14965;50.660;13.226;2023-02-10T06:16:15;-2.60;99.90
27224;DHT22;14965;50.660;13.226;2023-02-10T06:18:41;-2.50;99.90
27224;DHT22;14965;50.660;13.226;2023-02-10T06:21:09;-2.50;99.90
27224;DHT22;14965;50.660;13.226;2023-02-10T06:23:42;-2.50;99.90
27224;DHT22;14965;50.660;13.226;2023-02-10T06:26:25;-2.40;99.90
27224;DHT22;14965;50.660;13.226;2023-02-10T06:28:58;-2.40;99.90
27224;DHT22;14965;50.660;13.226;2023-02-10T06:31:27;-2.40;99.90
27224;DHT22;14965;50.660;13.226;2023-02-10T06:33:58;-2.40;99.90
27224;DHT22;14965;50.660;13.226;2023-02-10T06:36:27;-2.30;99.90
27224;DHT22;14965;50.660;13.226;2023-02-10T06:39:00;-2.20;99.90
27224;DHT22;14965;50.660;13.226;2023-02-10T06:41:29;-2.30;99.90
27224;DHT22;14965;50.660;13.226;2023-02-10T06:44:01;-2.30;99.90
27224;DHT22;14965;50.660;13.226;2023-02-10T06:46:38;-2.20;99.90
27224;DHT22;14965;50.660;13.226;2023-02-10T06:49:11;-2.20;99.90
27224;DHT22;14965;50.660;13.226;2023-02-10T06:51:59;-2.10;99.90
27224;DHT22;14965;50.660;13.226;2023-02-10T06:54:37;-2.20;99.90
27224;DHT22;14965;50.660;13.226;2023-02-10T06:57:10;-2.10;99.90
27224;DHT22;14965;50.660;13.226;2023-02-10T06:59:44;-2.10;99.90
27224;DHT22;14965;50.660;13.226;2023-02-10T07:02:13;-2.00;99.90
27224;DHT22;14965;50.660;13.226;2023-02-10T07:04:42;-2.00;99.90
27224;DHT22;14965;50.660;13.226;2023-02-10T07:07:11;-2.00;99.90
27224;DHT22;14965;50.660;13.226;2023-02-10T07:09:38;-1.90;99.90
27224;DHT22;14965;50.660;13.226;2023-02-10T07:12:20;-2.00;99.90
27224;DHT22;14965;50.660;13.226;2023-02-10T07:15:04;-2.00;99.90
27224;DHT22;14965;50.660;13.226;2023-02-10T07:17:36;-2.00;99.90
27224;DHT22;14965;50.660;13.226;2023-02-10T07:20:13;-2.00;99.90
27224;DHT22;14965;50.660;13.226;2023-02-10T07:22:48;-2.00;99.90
27224;DHT22;14965;50.660;13.226;2023-02-10T07:25:26;-1.90;99.90
27224;DHT22;14965;50.660;13.226;2023-02-10T07:28:07;-1.80;99.90
27224;DHT22;14965;50.660;13.226;2023-02-10T07:30:43;-1.80;99.90
27224;DHT22;14965;50.660;13.226;2023-02-10T07:33:17;-1.70;99.90
27224;DHT22;14965;50.660;13.226;2023-02-10T07:35:52;-1.70;99.90
27224;DHT22;14965;50.660;13.226;2023-02-10T07:38:28;-1.50;99.90
27224;DHT22;14965;50.660;13.226;2023-02-10T07:41:14;-1.50;99.90
27224;DHT22;14965;50.660;13.226;2023-02-10T07:43:54;-1.40;99.90
27224;DHT22;14965;50.660;13.226;2023-02-10T07:46:31;-1.50;99.90
27224;DHT22;14965;50.660;13.226;2023-02-10T07:49:12;-1.40;99.90
27224;DHT22;14965;50.660;13.226;2023-02-10T07:51:59;-1.40;99.90
27224;DHT22;14965;50.660;13.226;2023-02-10T07:54:30;-1.30;99.90
27224;DHT22;14965;50.660;13.226;2023-02-10T07:57:00;-1.20;99.90
27224;DHT22;14965;50.660;13.226;2023-02-10T07:59:48;-1.20;99.90
27224;DHT22;14965;50.660;13.226;2023-02-10T08:02:22;-1.20;99.90
27224;DHT22;14965;50.660;13.226;2023-02-10T08:04:56;-1.10;99.90
27224;DHT22;14965;50.660;13.226;2023-02-10T08:07:35;-1.00;99.90
27224;DHT22;14965;50.660;13.226;2023-02-10T08:10:13;-1.00;99.90
27224;DHT22;14965;50.660;13.226;2023-02-10T08:13:00;-1.00;99.90
27224;DHT22;14965;50.660;13.226;2023-02-10T08:15:39;-1.00;99.90
27224;DHT22;14965;50.660;13.226;2023-02-10T08:18:13;-0.90;99.90
27224;DHT22;14965;50.660;13.226;2023-02-10T08:20:52;-0.80;99.90
27224;DHT22;14965;50.660;13.226;2023-02-10T08:23:23;-0.80;99.90
27224;DHT22;14965;50.660;13.226;2023-02-10T08:25:49;-0.80;99.90
27224;DHT22;14965;50.660;13.226;2023-02-10T08:28:15;-0.80;99.90
27224;DHT22;14965;50.660;13.226;2023-02-10T08:30:42;-0.80;99.90
27224;DHT22;14965;50.660;13.226;2023-02-10T08:33:08;-0.80;99.90
27224;DHT22;14965;50.660;13.226;2023-02-10T08:35:35;-0.80;99.90
27224;DHT22;14965;50.660;13.226;2023-02-10T08:38:01;-0.70;99.90
27224;DHT22;14965;50.660;13.226;2023-02-10T08:40:27;-0.70;99.90
27224;DHT22;14965;50.660;13.226;2023-02-10T08:42:53;-0.60;99.90
27224;DHT22;14965;50.660;13.226;2023-02-10T08:45:19;-0.60;99.90
27224;DHT22;14965;50.660;13.226;2023-02-10T08:47:46;-0.50;99.90
27224;DHT22;14965;50.660;13.226;2023-02-10T08:50:13;-0.50;99.90
27224;DHT22;14965;50.660;13.226;2023-02-10T08:52:39;-0.50;99.90
27224;DHT22;14965;50.660;13.226;2023-02-10T08:55:05;-0.50;99.90
27224;DHT22;14965;50.660;13.226;2023-02-10T08:57:32;-0.50;99.90
27224;DHT22;14965;50.660;13.226;2023-02-10T08:59:58;-0.40;99.90
27224;DHT22;14965;50.660;13.226;2023-02-10T09:02:24;-0.30;99.90
27224;DHT22;14965;50.660;13.226;2023-02-10T09:04:51;-0.20;99.90
27224;DHT22;14965;50.660;13.226;2023-02-10T09:07:17;-0.20;99.90
27224;DHT22;14965;50.660;13.226;2023-02-10T09:09:43;-0.10;99.90
27224;DHT22;14965;50.660;13.226;2023-02-10T09:12:10;-0.20;99.90
27224;DHT22;14965;50.660;13.226;2023-02-10T09:14:37;-0.20;99.90
27224;DHT22;14965;50.660;13.226;2023-02-10T09:17:03;-0.20;99.90
27224;DHT22;14965;50.660;13.226;2023-02-10T09:19:29;-0.10;99.90
27224;DHT22;14965;50.660;13.226;2023-02-10T09:21:56;-0.10;99.90
27224;DHT22;14965;50.660;13.226;2023-02-10T09:24:23;-0.10;99.90
27224;DHT22;14965;50.660;13.226;2023-02-10T09:26:48;0.00;99.90
27224;DHT22;14965;50.660;13.226;2023-02-10T09:29:15;-0.10;99.90
27224;DHT22;14965;50.660;13.226;2023-02-10T09:31:41;-0.10;99.90
27224;DHT22;14965;50.660;13.226;2023-02-10T09:34:07;0.00;99.90
27224;DHT22;14965;50.660;13.226;2023-02-10T09:36:33;0.00;99.90
27224;DHT22;14965;50.660;13.226;2023-02-10T09:39:00;0.00;99.90
27224;DHT22;14965;50.660;13.226;2023-02-10T09:41:47;0.20;99.90
27224;DHT22;14965;50.660;13.226;2023-02-10T09:44:32;0.10;99.90
27224;DHT22;14965;50.660;13.226;2023-02-10T09:47:41;0.10;99.90
27224;DHT22;14965;50.660;13.226;2023-02-10T09:53:56;0.20;99.90
27224;DHT22;14965;50.660;13.226;2023-02-10T09:57:17;0.20;99.90
27224;DHT22;14965;50.660;13.226;2023-02-10T10:00:20;0.20;99.90
27224;DHT22;14965;50.660;13.226;2023-02-10T10:03:06;0.40;99.90
27224;DHT22;14965;50.660;13.226;2023-02-10T10:06:02;0.40;99.90
27224;DHT22;14965;50.660;13.226;2023-02-10T10:09:17;0.50;99.90
27224;DHT22;14965;50.660;13.226;2023-02-10T10:12:03;0.60;99.90
27224;DHT22;14965;50.660;13.226;2023-02-10T10:14:39;0.60;99.90
27224;DHT22;14965;50.660;13.226;2023-02-10T10:17:21;0.50;99.90
27224;DHT22;14965;50.660;13.226;2023-02-10T10:20:22;0.60;99.90
27224;DHT22;14965;50.660;13.226;2023-02-10T10:24:18;0.60;99.90
27224;DHT22;14965;50.660;13.226;2023-02-10T10:27:24;0.60;99.90
27224;DHT22;14965;50.660;13.226;2023-02-10T10:30:27;0.70;99.90
27224;DHT22;14965;50.660;13.226;2023-02-10T10:33:49;0.80;99.90
27224;DHT22;14965;50.660;13.226;2023-02-10T10:36:52;0.70;99.90
27224;DHT22;14965;50.660;13.226;2023-02-10T10:40:24;0.80;99.90
27224;DHT22;14965;50.660;13.226;2023-02-10T10:43:17;1.00;99.90
27224;DHT22;14965;50.660;13.226;2023-02-10T10:46:14;1.10;99.90
27224;DHT22;14965;50.660;13.226;2023-02-10T10:48:50;1.20;99.90
27224;DHT22;14965;50.660;13.226;2023-02-10T10:51:34;1.50;99.90
27224;DHT22;14965;50.660;13.226;2023-02-10T10:54:10;1.50;99.90
27224;DHT22;14965;50.660;13.226;2023-02-10T10:56:43;1.60;99.90
27224;DHT22;14965;50.660;13.226;2023-02-10T10:59:14;1.80;99.90
27224;DHT22;14965;50.660;13.226;2023-02-10T11:01:46;2.00;99.90
27224;DHT22;14965;50.660;13.226;2023-02-10T11:04:15;2.20;99.90
27224;DHT22;14965;50.660;13.226;2023-02-10T11:06:45;2.40;99.90
27224;DHT22;14965;50.660;13.226;2023-02-10T11:09:22;2.50;99.90
27224;DHT22;14965;50.660;13.226;2023-02-10T11:11:53;2.60;99.90
27224;DHT22;14965;50.660;13.226;2023-02-10T11:14:28;2.80;99.90
27224;DHT22;14965;50.660;13.226;2023-02-10T11:16:58;2.90;99.90
27224;DHT22;14965;50.660;13.226;2023-02-10T11:19:28;2.90;99.90
27224;DHT22;14965;50.660;13.226;2023-02-10T11:21:55;3.00;99.90
27224;DHT22;14965;50.660;13.226;2023-02-10T11:24:24;3.00;99.90
27224;DHT22;14965;50.660;13.226;2023-02-10T11:26:57;2.80;99.90
27224;DHT22;14965;50.660;13.226;2023-02-10T11:29:25;2.80;99.90
27224;DHT22;14965;50.660;13.226;2023-02-10T11:31:53;2.90;99.90
27224;DHT22;14965;50.660;13.226;2023-02-10T11:34:24;3.00;99.90
27224;DHT22;14965;50.660;13.226;2023-02-10T11:36:54;3.10;99.90
27224;DHT22;14965;50.660;13.226;2023-02-10T11:39:33;3.00;99.90
27224;DHT22;14965;50.660;13.226;2023-02-10T11:42:06;3.20;99.90
27224;DHT22;14965;50.660;13.226;2023-02-10T11:44:33;3.20;99.90
27224;DHT22;14965;50.660;13.226;2023-02-10T11:47:01;3.20;99.90
27224;DHT22;14965;50.660;13.226;2023-02-10T11:49:31;3.30;99.90
27224;DHT22;14965;50.660;13.226;2023-02-10T11:52:02;3.30;99.90
27224;DHT22;14965;50.660;13.226;2023-02-10T11:54:30;3.30;99.90
27224;DHT22;14965;50.660;13.226;2023-02-10T11:57:04;3.20;99.90
27224;DHT22;14965;50.660;13.226;2023-02-10T11:59:47;3.10;99.90
27224;DHT22;14965;50.660;13.226;2023-02-10T12:02:27;2.90;99.90
27224;DHT22;14965;50.660;13.226;2023-02-10T12:05:15;2.80;99.90
27224;DHT22;14965;50.660;13.226;2023-02-10T12:08:04;2.60;99.90
27224;DHT22;14965;50.660;13.226;2023-02-10T12:10:42;2.40;99.90
27224;DHT22;14965;50.660;13.226;2023-02-10T12:13:19;2.30;99.90
27224;DHT22;14965;50.660;13.226;2023-02-10T12:16:04;2.30;99.90
27224;DHT22;14965;50.660;13.226;2023-02-10T12:18:47;2.30;99.90
27224;DHT22;14965;50.660;13.226;2023-02-10T12:21:48;2.20;99.90
27224;DHT22;14965;50.660;13.226;2023-02-10T12:24:50;2.20;99.90
27224;DHT22;14965;50.660;13.226;2023-02-10T12:27:30;2.30;99.90
27224;DHT22;14965;50.660;13.226;2023-02-10T12:30:13;2.60;99.90
27224;DHT22;14965;50.660;13.226;2023-02-10T12:33:02;2.90;99.90
27224;DHT22;14965;50.660;13.226;2023-02-10T12:35:47;3.20;99.90
27224;DHT22;14965;50.660;13.226;2023-02-10T12:38:30;3.40;99.90
27224;DHT22;14965;50.660;13.226;2023-02-10T12:41:15;3.40;99.90
27224;DHT22;14965;50.660;13.226;2023-02-10T12:44:00;3.20;99.90
27224;DHT22;14965;50.660;13.226;2023-02-10T12:46:43;3.00;99.90
27224;DHT22;14965;50.660;13.226;2023-02-10T12:49:25;2.80;99.90
27224;DHT22;14965;50.660;13.226;2023-02-10T12:52:09;2.70;99.90
27224;DHT22;14965;50.660;13.226;2023-02-10T12:54:43;2.90;99.90
27224;DHT22;14965;50.660;13.226;2023-02-10T12:57:21;3.00;99.90
27224;DHT22;14965;50.660;13.226;2023-02-10T12:59:56;3.00;99.90
27224;DHT22;14965;50.660;13.226;2023-02-10T13:02:30;3.00;99.90
27224;DHT22;14965;50.660;13.226;2023-02-10T13:05:06;3.00;99.90
27224;DHT22;14965;50.660;13.226;2023-02-10T13:07:40;2.80;99.90
27224;DHT22;14965;50.660;13.226;2023-02-10T13:10:26;2.70;99.90
27224;DHT22;14965;50.660;13.226;2023-02-10T13:13:00;2.60;99.90
27224;DHT22;14965;50.660;13.226;2023-02-10T13:15:33;2.60;99.90
27224;DHT22;14965;50.660;13.226;2023-02-10T13:18:04;2.50;99.90
27224;DHT22;14965;50.660;13.226;2023-02-10T13:20:44;2.40;99.90
27224;DHT22;14965;50.660;13.226;2023-02-10T13:23:24;2.30;99.90
27224;DHT22;14965;50.660;13.226;2023-02-10T13:26:34;2.20;99.90
27224;DHT22;14965;50.660;13.226;2023-02-10T13:29:15;2.20;99.90
27224;DHT22;14965;50.660;13.226;2023-02-10T13:31:59;2.20;99.90
27224;DHT22;14965;50.660;13.226;2023-02-10T13:34:40;2.30;99.90
27224;DHT22;14965;50.660;13.226;2023-02-10T13:37:13;2.20;99.90
27224;DHT22;14965;50.660;13.226;2023-02-10T13:42:24;2.00;99.90
27224;DHT22;14965;50.660;13.226;2023-02-10T13:45:00;1.90;99.90
27224;DHT22;14965;50.660;13.226;2023-02-10T13:47:36;1.80;99.90
27224;DHT22;14965;50.660;13.226;2023-02-10T13:50:16;1.80;99.90
27224;DHT22;14965;50.660;13.226;2023-02-10T13:52:51;1.90;99.90
27224;DHT22;14965;50.660;13.226;2023-02-10T13:55:40;1.90;99.90
27224;DHT22;14965;50.660;13.226;2023-02-10T13:58:28;2.00;99.90
27224;DHT22;14965;50.660;13.226;2023-02-10T14:00:57;2.10;99.90
27224;DHT22;14965;50.660;13.226;2023-02-10T14:03:24;2.00;99.90
27224;DHT22;14965;50.660;13.226;2023-02-10T14:05:55;2.00;99.90
27224;DHT22;14965;50.660;13.226;2023-02-10T14:08:30;1.90;99.90
27224;DHT22;14965;50.660;13.226;2023-02-10T14:11:02;1.80;99.90
27224;DHT22;14965;50.660;13.226;2023-02-10T14:13:33;1.70;99.90
27224;DHT22;14965;50.660;13.226;2023-02-10T14:16:03;1.70;99.90
27224;DHT22;14965;50.660;13.226;2023-02-10T14:18:32;1.60;99.90
27224;DHT22;14965;50.660;13.226;2023-02-10T14:21:00;1.60;99.90
27224;DHT22;14965;50.660;13.226;2023-02-10T14:23:31;1.60;99.90
27224;DHT22;14965;50.660;13.226;2023-02-10T14:26:01;1.60;99.90
27224;DHT22;14965;50.660;13.226;2023-02-10T14:28:33;1.60;99.90
27224;DHT22;14965;50.660;13.226;2023-02-10T14:31:05;1.60;99.90
27224;DHT22;14965;50.660;13.226;2023-02-10T14:33:36;1.60;99.90
27224;DHT22;14965;50.660;13.226;2023-02-10T14:36:04;1.60;99.90
27224;DHT22;14965;50.660;13.226;2023-02-10T14:38:43;1.60;99.90
27224;DHT22;14965;50.660;13.226;2023-02-10T14:41:10;1.60;99.90
27224;DHT22;14965;50.660;13.226;2023-02-10T14:43:39;1.60;99.90
27224;DHT22;14965;50.660;13.226;2023-02-10T14:46:05;1.60;99.90
27224;DHT22;14965;50.660;13.226;2023-02-10T14:48:32;1.70;99.90
27224;DHT22;14965;50.660;13.226;2023-02-10T14:51:01;1.60;99.90
27224;DHT22;14965;50.660;13.226;2023-02-10T14:53:29;1.70;99.90
27224;DHT22;14965;50.660;13.226;2023-02-10T14:55:57;1.70;99.90
27224;DHT22;14965;50.660;13.226;2023-02-10T14:58:25;1.70;99.90
27224;DHT22;14965;50.660;13.226;2023-02-10T15:00:59;1.70;99.90
27224;DHT22;14965;50.660;13.226;2023-02-10T15:03:28;1.60;99.90
27224;DHT22;14965;50.660;13.226;2023-02-10T15:05:56;1.60;99.90
27224;DHT22;14965;50.660;13.226;2023-02-10T15:08:29;1.60;99.90
27224;DHT22;14965;50.660;13.226;2023-02-10T15:10:59;1.60;99.90
27224;DHT22;14965;50.660;13.226;2023-02-10T15:13:32;1.60;99.90
27224;DHT22;14965;50.660;13.226;2023-02-10T15:16:03;1.50;99.90
27224;DHT22;14965;50.660;13.226;2023-02-10T15:18:35;1.50;99.90
27224;DHT22;14965;50.660;13.226;2023-02-10T15:21:25;1.50;99.90
27224;DHT22;14965;50.660;13.226;2023-02-10T15:23:53;1.50;99.90
27224;DHT22;14965;50.660;13.226;2023-02-10T15:26:22;1.50;99.90
27224;DHT22;14965;50.660;13.226;2023-02-10T15:29:03;1.50;99.90
27224;DHT22;14965;50.660;13.226;2023-02-10T15:31:34;1.50;99.90
27224;DHT22;14965;50.660;13.226;2023-02-10T15:34:02;1.50;99.90
27224;DHT22;14965;50.660;13.226;2023-02-10T15:36:45;1.40;99.90
27224;DHT22;14965;50.660;13.226;2023-02-10T15:39:19;1.40;99.90
27224;DHT22;14965;50.660;13.226;2023-02-10T15:42:03;1.40;99.90
27224;DHT22;14965;50.660;13.226;2023-02-10T15:44:45;1.30;99.90
27224;DHT22;14965;50.660;13.226;2023-02-10T15:47:43;1.30;99.90
27224;DHT22;14965;50.660;13.226;2023-02-10T15:50:11;1.20;99.90
27224;DHT22;14965;50.660;13.226;2023-02-10T15:52:40;1.20;99.90
27224;DHT22;14965;50.660;13.226;2023-02-10T15:55:14;1.10;99.90
27224;DHT22;14965;50.660;13.226;2023-02-10T15:57:44;1.00;99.90
27224;DHT22;14965;50.660;13.226;2023-02-10T16:00:27;0.90;99.90
27224;DHT22;14965;50.660;13.226;2023-02-10T16:02:56;0.90;99.90
27224;DHT22;14965;50.660;13.226;2023-02-10T16:05:22;0.80;99.90
27224;DHT22;14965;50.660;13.226;2023-02-10T16:07:49;0.80;99.90
27224;DHT22;14965;50.660;13.226;2023-02-10T16:10:18;0.70;99.90
27224;DHT22;14965;50.660;13.226;2023-02-10T16:12:46;0.60;99.90